Zao Maru — JE3142 — position and weather

sailwx.info

Track history (hours):
 
Tides and Currents Weather Stations Pressure Air Temp Water Temp Dewpoint Dewpoint Depression Visibility Wind Speed Wind Dir Waves Ship Positions

Zao Maru

Last reported at 2018-Feb-24 13:15 UTC. Time now 2018-Feb-25 11:30 UTC.
Position N 33°12' E 132°05'.

Length 115 m; draft 7.5 m.

Type: Cargo ship. MMSI: 431700103.

Date/timePositionNaut miles runAvg speedWind from/ knotsBaromVisibWave heightAir tempDewpointWater temp
2018-Feb-24 13:15N 33°12' E 132°05'311.3
2018-Feb-24 13:00N 33°14' E 132°03'611.9
2018-Feb-24 12:30N 33°19' E 131°59'611.7
2018-Feb-24 12:00N 33°24' E 131°55'611.7
2018-Feb-24 11:29N 33°29' E 131°51'612.0
2018-Feb-24 11:00N 33°34' E 131°49'611.7
2018-Feb-24 10:30N 33°39' E 131°44'612.0
2018-Feb-24 10:00N 33°42' E 131°38'611.7
2018-Feb-24 09:30N 33°44' E 131°31'611.5
2018-Feb-24 09:00N 33°45' E 131°24'611.4
2018-Feb-24 08:30N 33°46' E 131°18'611.3
2018-Feb-24 08:00N 33°47' E 131°11'611.1
2018-Feb-24 07:30N 33°49' E 131°05'4 8.9
2018-Feb-24 07:00N 33°48' E 130°60'0 0.2
2018-Feb-24 06:23N 33°48' E 130°60'0 0.0
2018-Feb-24 05:53N 33°48' E 130°60'0 0.0
2018-Feb-24 05:29N 33°48' E 130°60'0 0.0
2018-Feb-24 04:59N 33°48' E 130°60'0 0.0
2018-Feb-24 04:29N 33°48' E 130°60'0 0.0
2018-Feb-24 03:59N 33°48' E 130°60'0 0.0
2018-Feb-24 03:29N 33°48' E 130°60'0 0.0
2018-Feb-24 02:53N 33°48' E 130°60'0 0.0
2018-Feb-24 02:23N 33°48' E 130°60'0 0.0
2018-Feb-24 01:59N 33°48' E 130°60'0 0.0
2018-Feb-24 01:29N 33°48' E 130°60'0 0.0
2018-Feb-24 00:59N 33°48' E 130°60'0 0.0
2018-Feb-24 00:23N 33°48' E 130°60'0 0.0
2018-Feb-23 23:47N 33°48' E 130°60'0 0.0
2018-Feb-23 23:23N 33°48' E 130°60'0 0.0
2018-Feb-23 21:47N 33°48' E 130°60'0 0.0
2018-Feb-23 21:23N 33°48' E 130°60'0 0.0
2018-Feb-23 20:53N 33°48' E 130°60'0 0.0
2018-Feb-23 20:24N 33°48' E 130°60'0 0.6
2018-Feb-23 20:00N 33°48' E 130°60'3 6.9
2018-Feb-23 19:30N 33°49' E 131°04'1 1.4
2018-Feb-23 18:53N 33°48' E 131°05'0 0.1
2018-Feb-23 18:29N 33°48' E 131°05'0 0.0
2018-Feb-23 17:59N 33°48' E 131°05'0 0.0
2018-Feb-23 17:28N 33°48' E 131°05'0 0.0
2018-Feb-23 16:58N 33°48' E 131°05'0 0.0
2018-Feb-23 16:28N 33°48' E 131°05'0 0.0
2018-Feb-23 15:58N 33°48' E 131°05'0 0.0
2018-Feb-23 15:28N 33°48' E 131°05'0 0.0
2018-Feb-23 14:58N 33°48' E 131°05'0 0.0
2018-Feb-23 14:28N 33°48' E 131°05'0 0.1
2018-Feb-23 13:58N 33°48' E 131°05'0 0.0
2018-Feb-23 13:28N 33°48' E 131°05'0 0.0
2018-Feb-23 12:58N 33°48' E 131°05'0 0.0
2018-Feb-23 12:28N 33°48' E 131°05'0 0.1
2018-Feb-23 11:58N 33°48' E 131°05'0 0.0
2018-Feb-23 11:28N 33°48' E 131°05'0 0.1
2018-Feb-23 10:55N 33°48' E 131°05'0 0.0
2018-Feb-23 10:28N 33°48' E 131°05'0 0.0
2018-Feb-23 09:58N 33°48' E 131°05'0 0.1
2018-Feb-23 09:30N 33°48' E 131°05'4 7.8
2018-Feb-23 09:00N 33°48' E 131°00'0 0.7
2018-Feb-23 08:28N 33°48' E 130°60'0 0.0
2018-Feb-23 07:58N 33°48' E 130°60'0 0.0
2018-Feb-23 07:28N 33°48' E 130°60'0 0.0
2018-Feb-23 06:58N 33°48' E 130°60'0 0.0
2018-Feb-23 06:28N 33°48' E 130°60'0 0.0
2018-Feb-23 05:58N 33°48' E 130°60'0 0.0
2018-Feb-23 05:22N 33°48' E 130°60'0 0.0
2018-Feb-23 04:58N 33°48' E 130°60'0 0.0
2018-Feb-23 04:28N 33°48' E 130°60'0 0.0
2018-Feb-23 03:58N 33°48' E 130°60'0 0.0
2018-Feb-23 03:28N 33°48' E 130°60'0 0.0
2018-Feb-23 02:58N 33°48' E 130°60'0 0.0
2018-Feb-23 02:25N 33°48' E 130°60'0 0.0
2018-Feb-23 01:58N 33°48' E 130°60'0 0.0
2018-Feb-23 01:25N 33°48' E 130°60'0 0.0
2018-Feb-23 00:55N 33°48' E 130°60'0 0.0
2018-Feb-23 00:28N 33°48' E 130°60'0 0.0
2018-Feb-22 23:58N 33°48' E 130°60'0 0.0
2018-Feb-22 23:28N 33°48' E 130°60'0 0.0
2018-Feb-22 22:58N 33°48' E 130°60'0 0.0
2018-Feb-22 22:25N 33°48' E 130°60'0 0.0
2018-Feb-22 21:58N 33°48' E 130°60'0 0.0
2018-Feb-22 21:25N 33°48' E 130°60'0 0.0
2018-Feb-22 20:58N 33°48' E 130°60'0 0.3
2018-Feb-22 20:30N 33°48' E 130°60'3 5.8
2018-Feb-22 20:00N 33°49' E 131°03'510.9
2018-Feb-22 19:30N 33°48' E 131°10'611.2
2018-Feb-22 19:00N 33°47' E 131°16'510.9
2018-Feb-22 18:30N 33°45' E 131°23'611.2
2018-Feb-22 17:57N 33°44' E 131°30'511.1
2018-Feb-22 17:30N 33°43' E 131°36'510.8
2018-Feb-22 17:00N 33°41' E 131°42'611.0
2018-Feb-22 16:30N 33°37' E 131°47'611.4
2018-Feb-22 16:00N 33°33' E 131°51'611.8
2018-Feb-22 15:30N 33°28' E 131°55'612.3
2018-Feb-22 15:00N 33°22' E 131°57'612.5
2018-Feb-22 14:30N 33°17' E 132°01'219 9.9
2018-Feb-21 16:15N 33°45' E 136°22'7411.8
2018-Feb-21 09:59N 34°22' E 137°39'2310.6
2018-Feb-21 07:46N 34°28' E 138°07'310.6
2018-Feb-21 07:28N 34°29' E 138°11'710.4
2018-Feb-21 06:49N 34°29' E 138°19'410.7
2018-Feb-21 06:29N 34°29' E 138°23'610.6
2018-Feb-21 05:53N 34°30' E 138°31'410.6
2018-Feb-21 05:31N 34°31' E 138°35'611.0
2018-Feb-21 05:00N 34°31' E 138°42'712.0
2018-Feb-21 04:25N 34°32' E 138°51'511.5
2018-Feb-21 04:01N 34°32' E 138°56'611.2
2018-Feb-21 03:29N 34°33' E 139°03'510.5
2018-Feb-21 03:00N 34°34' E 139°09'510.1
2018-Feb-21 02:30N 34°36' E 139°15'611.4
2018-Feb-21 02:00N 34°37' E 139°22'611.7
2018-Feb-21 01:29N 34°39' E 139°29'610.9
2018-Feb-21 00:57N 34°42' E 139°35'2210.7
2018-Feb-20 22:56N 34°52' E 139°58'511.3
2018-Feb-20 22:31N 34°54' E 140°04'610.9
2018-Feb-20 21:59N 34°57' E 140°10'  
2018-Feb-16 11:26N 34°57' E 140°10'1610.3
2018-Feb-16 09:55N 34°50' E 139°53'612.2
2018-Feb-16 09:27N 34°47' E 139°47'1311.0
2018-Feb-16 08:15N 34°41' E 139°33'311.4
2018-Feb-16 07:59N 34°39' E 139°30'610.7
2018-Feb-16 07:26N 34°37' E 139°23'611.6
2018-Feb-16 06:55N 34°37' E 139°16'511.5
2018-Feb-16 06:31N 34°35' E 139°10'611.7
2018-Feb-16 06:00N 34°34' E 139°03'611.1
2018-Feb-16 05:30N 34°33' E 138°57'510.6
2018-Feb-16 05:00N 34°33' E 138°50'710.9
2018-Feb-16 04:22N 34°32' E 138°42'410.8
2018-Feb-16 03:59N 34°32' E 138°37'510.6
2018-Feb-16 03:30N 34°31' E 138°31'610.9
2018-Feb-16 02:59N 34°30' E 138°24'611.5
2018-Feb-16 02:28N 34°30' E 138°17'611.9
2018-Feb-16 01:59N 34°29' E 138°10'511.5
2018-Feb-16 01:30N 34°29' E 138°03'1411.1
2018-Feb-16 00:13N 34°25' E 137°47'7710.6
2018-Feb-15 16:58N 33°49' E 136°25'221 9.5
2018-Feb-14 17:44N 33°13' E 132°03'312.6
2018-Feb-14 17:30N 33°16' E 132°01'612.7
2018-Feb-14 17:00N 33°21' E 131°57'612.4
2018-Feb-14 16:30N 33°27' E 131°53'612.7
2018-Feb-14 16:00N 33°32' E 131°50'612.6
2018-Feb-14 15:30N 33°37' E 131°46'612.0
2018-Feb-14 15:00N 33°42' E 131°40'612.5
2018-Feb-14 14:30N 33°43' E 131°33'611.7
2018-Feb-14 14:00N 33°45' E 131°27'611.6
2018-Feb-14 13:30N 33°47' E 131°20'  
Track history (hours):
 
Tides and Currents Weather Stations Pressure Air Temp Water Temp Dewpoint Dewpoint Depression Visibility Wind Speed Wind Dir Waves Ship Positions

Zao Maru

Last reported at 2018-Feb-24 13:15 UTC. Time now 2018-Feb-25 11:30 UTC.
Position N 33°12' E 132°05'.

Length 115 m; draft 7.5 m.

Type: Cargo ship. MMSI: 431700103.

Date/timePositionNaut miles runAvg speedWind from/ knotsBaromVisibWave heightAir tempDewpointWater temp
2018-Feb-24 13:15N 33°12' E 132°05'311.3
2018-Feb-24 13:00N 33°14' E 132°03'611.9
2018-Feb-24 12:30N 33°19' E 131°59'611.7
2018-Feb-24 12:00N 33°24' E 131°55'611.7
2018-Feb-24 11:29N 33°29' E 131°51'612.0
2018-Feb-24 11:00N 33°34' E 131°49'611.7
2018-Feb-24 10:30N 33°39' E 131°44'612.0
2018-Feb-24 10:00N 33°42' E 131°38'611.7
2018-Feb-24 09:30N 33°44' E 131°31'611.5
2018-Feb-24 09:00N 33°45' E 131°24'611.4
2018-Feb-24 08:30N 33°46' E 131°18'611.3
2018-Feb-24 08:00N 33°47' E 131°11'611.1
2018-Feb-24 07:30N 33°49' E 131°05'4 8.9
2018-Feb-24 07:00N 33°48' E 130°60'0 0.2
2018-Feb-24 06:23N 33°48' E 130°60'0 0.0
2018-Feb-24 05:53N 33°48' E 130°60'0 0.0
2018-Feb-24 05:29N 33°48' E 130°60'0 0.0
2018-Feb-24 04:59N 33°48' E 130°60'0 0.0
2018-Feb-24 04:29N 33°48' E 130°60'0 0.0
2018-Feb-24 03:59N 33°48' E 130°60'0 0.0
2018-Feb-24 03:29N 33°48' E 130°60'0 0.0
2018-Feb-24 02:53N 33°48' E 130°60'0 0.0
2018-Feb-24 02:23N 33°48' E 130°60'0 0.0
2018-Feb-24 01:59N 33°48' E 130°60'0 0.0
2018-Feb-24 01:29N 33°48' E 130°60'0 0.0
2018-Feb-24 00:59N 33°48' E 130°60'0 0.0
2018-Feb-24 00:23N 33°48' E 130°60'0 0.0
2018-Feb-23 23:47N 33°48' E 130°60'0 0.0
2018-Feb-23 23:23N 33°48' E 130°60'0 0.0
2018-Feb-23 21:47N 33°48' E 130°60'0 0.0
2018-Feb-23 21:23N 33°48' E 130°60'0 0.0
2018-Feb-23 20:53N 33°48' E 130°60'0 0.0
2018-Feb-23 20:24N 33°48' E 130°60'0 0.6
2018-Feb-23 20:00N 33°48' E 130°60'3 6.9
2018-Feb-23 19:30N 33°49' E 131°04'1 1.4
2018-Feb-23 18:53N 33°48' E 131°05'0 0.1
2018-Feb-23 18:29N 33°48' E 131°05'0 0.0
2018-Feb-23 17:59N 33°48' E 131°05'0 0.0
2018-Feb-23 17:28N 33°48' E 131°05'0 0.0
2018-Feb-23 16:58N 33°48' E 131°05'0 0.0
2018-Feb-23 16:28N 33°48' E 131°05'0 0.0
2018-Feb-23 15:58N 33°48' E 131°05'0 0.0
2018-Feb-23 15:28N 33°48' E 131°05'0 0.0
2018-Feb-23 14:58N 33°48' E 131°05'0 0.0
2018-Feb-23 14:28N 33°48' E 131°05'0 0.1
2018-Feb-23 13:58N 33°48' E 131°05'0 0.0
2018-Feb-23 13:28N 33°48' E 131°05'0 0.0
2018-Feb-23 12:58N 33°48' E 131°05'0 0.0
2018-Feb-23 12:28N 33°48' E 131°05'0 0.1
2018-Feb-23 11:58N 33°48' E 131°05'0 0.0
2018-Feb-23 11:28N 33°48' E 131°05'0 0.1
2018-Feb-23 10:55N 33°48' E 131°05'0 0.0
2018-Feb-23 10:28N 33°48' E 131°05'0 0.0
2018-Feb-23 09:58N 33°48' E 131°05'0 0.1
2018-Feb-23 09:30N 33°48' E 131°05'4 7.8
2018-Feb-23 09:00N 33°48' E 131°00'0 0.7
2018-Feb-23 08:28N 33°48' E 130°60'0 0.0
2018-Feb-23 07:58N 33°48' E 130°60'0 0.0
2018-Feb-23 07:28N 33°48' E 130°60'0 0.0
2018-Feb-23 06:58N 33°48' E 130°60'0 0.0
2018-Feb-23 06:28N 33°48' E 130°60'0 0.0
2018-Feb-23 05:58N 33°48' E 130°60'0 0.0
2018-Feb-23 05:22N 33°48' E 130°60'0 0.0
2018-Feb-23 04:58N 33°48' E 130°60'0 0.0
2018-Feb-23 04:28N 33°48' E 130°60'0 0.0
2018-Feb-23 03:58N 33°48' E 130°60'0 0.0
2018-Feb-23 03:28N 33°48' E 130°60'0 0.0
2018-Feb-23 02:58N 33°48' E 130°60'0 0.0
2018-Feb-23 02:25N 33°48' E 130°60'0 0.0
2018-Feb-23 01:58N 33°48' E 130°60'0 0.0
2018-Feb-23 01:25N 33°48' E 130°60'0 0.0
2018-Feb-23 00:55N 33°48' E 130°60'0 0.0
2018-Feb-23 00:28N 33°48' E 130°60'0 0.0
2018-Feb-22 23:58N 33°48' E 130°60'0 0.0
2018-Feb-22 23:28N 33°48' E 130°60'0 0.0
2018-Feb-22 22:58N 33°48' E 130°60'0 0.0
2018-Feb-22 22:25N 33°48' E 130°60'0 0.0
2018-Feb-22 21:58N 33°48' E 130°60'0 0.0
2018-Feb-22 21:25N 33°48' E 130°60'0 0.0
2018-Feb-22 20:58N 33°48' E 130°60'0 0.3
2018-Feb-22 20:30N 33°48' E 130°60'3 5.8
2018-Feb-22 20:00N 33°49' E 131°03'510.9
2018-Feb-22 19:30N 33°48' E 131°10'611.2
2018-Feb-22 19:00N 33°47' E 131°16'510.9
2018-Feb-22 18:30N 33°45' E 131°23'611.2
2018-Feb-22 17:57N 33°44' E 131°30'511.1
2018-Feb-22 17:30N 33°43' E 131°36'510.8
2018-Feb-22 17:00N 33°41' E 131°42'611.0
2018-Feb-22 16:30N 33°37' E 131°47'611.4
2018-Feb-22 16:00N 33°33' E 131°51'611.8
2018-Feb-22 15:30N 33°28' E 131°55'612.3
2018-Feb-22 15:00N 33°22' E 131°57'612.5
2018-Feb-22 14:30N 33°17' E 132°01'219 9.9
2018-Feb-21 16:15N 33°45' E 136°22'7411.8
2018-Feb-21 09:59N 34°22' E 137°39'2310.6
2018-Feb-21 07:46N 34°28' E 138°07'310.6
2018-Feb-21 07:28N 34°29' E 138°11'710.4
2018-Feb-21 06:49N 34°29' E 138°19'410.7
2018-Feb-21 06:29N 34°29' E 138°23'610.6
2018-Feb-21 05:53N 34°30' E 138°31'410.6
2018-Feb-21 05:31N 34°31' E 138°35'611.0
2018-Feb-21 05:00N 34°31' E 138°42'712.0
2018-Feb-21 04:25N 34°32' E 138°51'511.5
2018-Feb-21 04:01N 34°32' E 138°56'611.2
2018-Feb-21 03:29N 34°33' E 139°03'510.5
2018-Feb-21 03:00N 34°34' E 139°09'510.1
2018-Feb-21 02:30N 34°36' E 139°15'611.4
2018-Feb-21 02:00N 34°37' E 139°22'611.7
2018-Feb-21 01:29N 34°39' E 139°29'610.9
2018-Feb-21 00:57N 34°42' E 139°35'2210.7
2018-Feb-20 22:56N 34°52' E 139°58'511.3
2018-Feb-20 22:31N 34°54' E 140°04'610.9
2018-Feb-20 21:59N 34°57' E 140°10'  
2018-Feb-16 11:26N 34°57' E 140°10'1610.3
2018-Feb-16 09:55N 34°50' E 139°53'612.2
2018-Feb-16 09:27N 34°47' E 139°47'1311.0
2018-Feb-16 08:15N 34°41' E 139°33'311.4
2018-Feb-16 07:59N 34°39' E 139°30'610.7
2018-Feb-16 07:26N 34°37' E 139°23'611.6
2018-Feb-16 06:55N 34°37' E 139°16'511.5
2018-Feb-16 06:31N 34°35' E 139°10'611.7
2018-Feb-16 06:00N 34°34' E 139°03'611.1
2018-Feb-16 05:30N 34°33' E 138°57'510.6
2018-Feb-16 05:00N 34°33' E 138°50'710.9
2018-Feb-16 04:22N 34°32' E 138°42'410.8
2018-Feb-16 03:59N 34°32' E 138°37'510.6
2018-Feb-16 03:30N 34°31' E 138°31'610.9
2018-Feb-16 02:59N 34°30' E 138°24'611.5
2018-Feb-16 02:28N 34°30' E 138°17'611.9
2018-Feb-16 01:59N 34°29' E 138°10'511.5
2018-Feb-16 01:30N 34°29' E 138°03'1411.1
2018-Feb-16 00:13N 34°25' E 137°47'7710.6
2018-Feb-15 16:58N 33°49' E 136°25'221 9.5
2018-Feb-14 17:44N 33°13' E 132°03'312.6
2018-Feb-14 17:30N 33°16' E 132°01'612.7
2018-Feb-14 17:00N 33°21' E 131°57'612.4
2018-Feb-14 16:30N 33°27' E 131°53'612.7
2018-Feb-14 16:00N 33°32' E 131°50'612.6
2018-Feb-14 15:30N 33°37' E 131°46'612.0
2018-Feb-14 15:00N 33°42' E 131°40'612.5
2018-Feb-14 14:30N 33°43' E 131°33'611.7
2018-Feb-14 14:00N 33°45' E 131°27'611.6
2018-Feb-14 13:30N 33°47' E 131°20'  

Dump ship's entire track history